createdAt,value
2022-08-02T00:00:57.465Z,50.25
2022-08-02T00:03:24.799Z,50.45
2022-08-02T00:05:53.701Z,50.52
2022-08-02T00:08:22.482Z,50.59
2022-08-02T00:10:49.965Z,50.52
2022-08-02T00:13:17.008Z,50.35
2022-08-02T00:15:44.208Z,49.87
2022-08-02T00:18:11.298Z,50.21
2022-08-02T00:20:38.442Z,50.23
2022-08-02T00:23:05.553Z,50.24
2022-08-02T00:25:32.533Z,50.52
2022-08-02T00:27:59.527Z,50.45
2022-08-02T00:30:26.568Z,50.31
2022-08-02T00:32:53.656Z,50.25
2022-08-02T00:35:20.936Z,50.04
2022-08-02T00:37:48.117Z,49.80
2022-08-02T00:40:15.463Z,50.23
2022-08-02T00:42:44.243Z,50.67
2022-08-02T00:45:11.479Z,50.43
2022-08-02T00:47:38.588Z,50.86
2022-08-02T00:50:06.487Z,50.30
2022-08-02T00:52:33.660Z,51.35
2022-08-02T00:55:00.731Z,50.87
2022-08-02T00:57:27.766Z,50.35
2022-08-02T00:59:54.726Z,50.49
2022-08-02T01:02:21.787Z,50.60
2022-08-02T01:04:48.864Z,50.70
2022-08-02T01:07:16.005Z,51.20
2022-08-02T01:09:45.082Z,51.33
2022-08-02T01:12:13.187Z,50.57
2022-08-02T01:14:50.942Z,51.35
2022-08-02T01:17:58.826Z,52.38
2022-08-02T01:20:58.126Z,52.74
2022-08-02T01:23:43.132Z,52.55
2022-08-02T01:26:37.467Z,52.28
2022-08-02T01:29:17.075Z,53.33
2022-08-02T01:32:02.059Z,52.94
2022-08-02T01:34:46.254Z,53.25
2022-08-02T01:37:32.393Z,53.10
2022-08-02T01:40:09.648Z,52.93
2022-08-02T01:42:40.612Z,53.10
2022-08-02T01:45:10.335Z,53.08
2022-08-02T01:47:40.753Z,53.15
2022-08-02T01:50:12.096Z,53.67
2022-08-02T01:52:53.544Z,53.85
2022-08-02T01:55:35.068Z,54.69
2022-08-02T01:58:23.235Z,53.37
2022-08-02T02:00:51.408Z,53.27
2022-08-02T02:03:24.717Z,54.12
2022-08-02T02:05:57.794Z,53.98
2022-08-02T02:08:32.484Z,54.52
2022-08-02T02:12:06.024Z,54.08
2022-08-02T02:13:50.800Z,53.75
2022-08-02T02:16:22.065Z,54.35
2022-08-02T02:18:49.996Z,54.02
2022-08-02T02:21:17.270Z,53.55
2022-08-02T02:23:44.444Z,54.50
2022-08-02T02:26:16.822Z,54.86
2022-08-02T02:28:58.449Z,54.11
2022-08-02T02:31:27.184Z,54.72
2022-08-02T02:34:03.061Z,55.37
2022-08-02T02:36:33.342Z,55.31
2022-08-02T02:39:11.602Z,55.17
2022-08-02T02:41:43.492Z,55.43
2022-08-02T02:44:18.479Z,55.84
2022-08-02T02:46:46.832Z,55.12
2022-08-02T02:49:16.284Z,54.95
2022-08-02T02:51:44.455Z,54.76
2022-08-02T02:54:30.589Z,55.36
2022-08-02T02:57:02.830Z,56.12
2022-08-02T02:59:30.382Z,56.21
2022-08-02T03:01:58.880Z,56.03
2022-08-02T03:04:55.957Z,56.34
2022-08-02T03:07:16.767Z,56.89
2022-08-02T03:09:44.093Z,57.26
2022-08-02T03:12:11.812Z,56.91
2022-08-02T03:14:45.547Z,57.76
2022-08-02T03:17:16.769Z,57.55
2022-08-02T03:19:45.513Z,57.44
2022-08-02T03:22:15.711Z,57.73
2022-08-02T03:24:42.791Z,57.11
2022-08-02T03:27:09.820Z,57.51
2022-08-02T03:29:36.911Z,57.15
2022-08-02T03:32:04.558Z,57.72
2022-08-02T03:34:31.861Z,57.77
2022-08-02T03:36:59.728Z,57.49
2022-08-02T03:39:27.955Z,57.25
2022-08-02T03:41:55.974Z,57.87
2022-08-02T03:44:24.263Z,58.06
2022-08-02T03:46:53.031Z,58.11
2022-08-02T03:49:21.961Z,57.93
2022-08-02T03:51:49.405Z,57.72
2022-08-02T03:54:18.796Z,58.10
2022-08-02T03:56:46.516Z,58.15
2022-08-02T03:59:15.218Z,57.74
2022-08-02T04:01:42.795Z,57.50
2022-08-02T04:04:10.434Z,57.14
2022-08-02T04:06:40.162Z,57.02
2022-08-02T04:09:09.649Z,57.04
2022-08-02T04:11:37.977Z,57.71
2022-08-02T04:14:11.100Z,57.83
2022-08-02T04:17:08.606Z,57.53
2022-08-02T04:19:50.937Z,57.36
2022-08-02T04:22:27.470Z,57.28
2022-08-02T04:28:15.571Z,57.68
2022-08-02T04:30:21.378Z,58.08
2022-08-02T04:32:48.429Z,58.50
2022-08-02T04:35:20.159Z,57.68
2022-08-02T04:38:08.521Z,57.58
2022-08-02T04:40:36.367Z,57.01
2022-08-02T04:43:03.614Z,57.66
2022-08-02T04:45:31.618Z,57.89
2022-08-02T04:48:06.521Z,58.27
2022-08-02T04:50:34.755Z,57.32
2022-08-02T04:53:01.943Z,57.37
2022-08-02T04:55:30.058Z,57.91
2022-08-02T04:57:58.948Z,57.55
2022-08-02T05:00:29.849Z,56.45
2022-08-02T05:02:58.032Z,56.56
2022-08-02T05:05:26.126Z,56.42
2022-08-02T05:07:53.283Z,55.70
2022-08-02T05:10:20.998Z,55.72
2022-08-02T05:12:48.234Z,54.37
2022-08-02T05:15:18.316Z,53.10
2022-08-02T05:17:48.541Z,52.60
2022-08-02T05:20:19.642Z,52.11
2022-08-02T05:22:47.289Z,51.57
2022-08-02T05:25:15.205Z,50.78
2022-08-02T05:27:42.662Z,50.99
2022-08-02T05:30:10.400Z,50.47
2022-08-02T05:32:47.307Z,50.56
2022-08-02T05:35:17.304Z,49.58
2022-08-02T05:37:44.274Z,48.88
2022-08-02T05:40:16.591Z,48.95
2022-08-02T05:42:44.259Z,47.95
2022-08-02T05:45:11.988Z,46.94
2022-08-02T05:47:39.670Z,47.33
2022-08-02T05:50:08.392Z,47.25
2022-08-02T05:53:02.608Z,47.21
2022-08-02T05:55:38.208Z,46.30
2022-08-02T05:58:31.351Z,46.42
2022-08-02T06:01:02.857Z,45.19
2022-08-02T06:03:43.515Z,44.52
2022-08-02T06:06:17.754Z,43.64
2022-08-02T06:08:49.391Z,44.45
2022-08-02T06:11:22.188Z,44.60
2022-08-02T06:13:49.676Z,44.01
2022-08-02T06:16:18.057Z,43.84
2022-08-02T06:19:01.242Z,43.53
2022-08-02T06:22:32.851Z,44.57
2022-08-02T06:24:19.951Z,44.20
2022-08-02T06:26:52.943Z,43.76
2022-08-02T06:29:23.332Z,43.51
2022-08-02T06:31:53.491Z,41.84
2022-08-02T06:34:20.826Z,39.84
2022-08-02T06:37:07.547Z,37.56
2022-08-02T06:39:47.860Z,35.63
2022-08-02T06:42:33.817Z,32.75
2022-08-02T06:45:00.908Z,32.27
2022-08-02T06:47:28.682Z,30.68
2022-08-02T06:49:58.556Z,30.25
2022-08-02T06:52:29.729Z,29.11
2022-08-02T06:55:02.662Z,28.56
2022-08-02T06:57:31.092Z,28.00
2022-08-02T07:00:02.673Z,27.33
2022-08-02T07:02:31.527Z,26.57
2022-08-02T07:04:59.127Z,26.20
2022-08-02T07:07:28.027Z,25.83
2022-08-02T07:10:00.922Z,26.89
2022-08-02T07:12:34.384Z,27.79
2022-08-02T07:15:06.046Z,27.11
2022-08-02T07:17:34.215Z,26.51
2022-08-02T07:20:01.818Z,26.64
2022-08-02T07:22:29.575Z,25.67
2022-08-02T07:24:58.911Z,24.99
2022-08-02T07:27:27.175Z,24.55
2022-08-02T07:29:55.556Z,24.74
2022-08-02T07:32:26.409Z,24.10
2022-08-02T07:34:55.977Z,23.86
2022-08-02T07:37:53.027Z,22.27
2022-08-02T07:40:19.895Z,23.32
2022-08-02T07:42:56.393Z,22.00
2022-08-02T07:45:26.520Z,21.34
2022-08-02T07:47:53.745Z,21.78
2022-08-02T07:50:21.807Z,21.76
2022-08-02T07:52:50.050Z,21.42
2022-08-02T07:55:24.705Z,20.86
2022-08-02T07:58:07.062Z,21.24
2022-08-02T08:00:38.381Z,21.38
2022-08-02T08:03:06.365Z,20.70
2022-08-02T08:05:34.001Z,20.30
2022-08-02T08:08:01.028Z,20.65
2022-08-02T08:10:28.526Z,19.96
2022-08-02T08:12:56.855Z,20.36
2022-08-02T08:15:23.867Z,21.00
2022-08-02T08:17:50.903Z,20.47
2022-08-02T08:20:18.658Z,20.37
2022-08-02T08:22:46.425Z,20.04
2022-08-02T08:25:13.431Z,19.60
2022-08-02T08:27:52.344Z,18.65
2022-08-02T08:30:22.036Z,17.88
2022-08-02T08:32:49.579Z,19.24
2022-08-02T08:35:16.664Z,19.01
2022-08-02T08:37:44.064Z,19.72
2022-08-02T08:40:12.593Z,19.50
2022-08-02T08:42:40.473Z,19.44
2022-08-02T08:45:09.196Z,19.50
2022-08-02T08:47:42.350Z,18.64
2022-08-02T08:50:18.887Z,19.66
2022-08-02T08:53:08.380Z,20.05
2022-08-02T08:55:36.641Z,19.69
2022-08-02T08:58:05.368Z,18.54
2022-08-02T09:00:36.357Z,17.94
2022-08-02T09:03:07.176Z,19.48
2022-08-02T09:05:43.518Z,18.08
2022-08-02T09:08:16.337Z,19.08
2022-08-02T09:10:47.363Z,20.01
2022-08-02T09:13:45.130Z,20.56
2022-08-02T09:16:14.773Z,20.53
2022-08-02T09:18:47.117Z,19.87
2022-08-02T09:21:17.183Z,20.43
2022-08-02T09:23:52.612Z,20.52
2022-08-02T09:26:24.603Z,20.50
2022-08-02T09:29:19.455Z,20.59
2022-08-02T09:32:06.960Z,20.98
2022-08-02T09:34:52.445Z,20.99
2022-08-02T09:37:37.566Z,19.48
2022-08-02T09:40:06.949Z,18.55
2022-08-02T09:42:34.850Z,18.64
2022-08-02T09:45:03.220Z,18.77
2022-08-02T09:47:31.355Z,19.04
2022-08-02T09:49:59.129Z,19.97
2022-08-02T09:52:43.026Z,19.12
2022-08-02T09:55:12.801Z,19.20
2022-08-02T09:57:40.186Z,18.45
2022-08-02T10:00:20.404Z,19.27
2022-08-02T10:03:21.490Z,19.50
2022-08-02T10:06:02.560Z,19.14
2022-08-02T10:08:33.846Z,18.89
2022-08-02T10:11:04.010Z,17.81
2022-08-02T10:13:36.728Z,18.34
2022-08-02T10:16:06.304Z,18.08
2022-08-02T10:18:39.320Z,19.56
2022-08-02T10:21:15.316Z,19.45
2022-08-02T10:23:45.152Z,19.01
2022-08-02T10:26:18.576Z,18.96
2022-08-02T10:28:49.665Z,18.79
2022-08-02T10:31:23.491Z,19.17
2022-08-02T10:33:53.033Z,18.69
2022-08-02T10:36:23.708Z,19.67
2022-08-02T10:38:51.188Z,18.31
2022-08-02T10:41:43.003Z,19.29
2022-08-02T10:44:29.268Z,22.10
2022-08-02T10:47:27.735Z,22.09
2022-08-02T10:50:00.467Z,21.71
2022-08-02T10:52:33.567Z,21.59
2022-08-02T10:55:13.503Z,20.61
2022-08-02T10:57:41.906Z,20.83
2022-08-02T11:00:24.869Z,21.12
2022-08-02T11:02:53.860Z,20.24
2022-08-02T11:05:42.797Z,20.03
2022-08-02T11:08:37.294Z,20.27
2022-08-02T11:11:53.811Z,20.40
2022-08-02T11:14:14.899Z,19.67
2022-08-02T11:17:02.807Z,18.70
2022-08-02T11:19:30.024Z,19.01
2022-08-02T11:22:13.775Z,18.16
2022-08-02T11:24:43.189Z,18.94
2022-08-02T11:27:19.145Z,18.47
2022-08-02T11:29:49.734Z,20.21
2022-08-02T11:32:22.317Z,19.77
2022-08-02T11:34:58.946Z,18.99
2022-08-02T11:37:36.449Z,18.74
2022-08-02T11:40:19.743Z,17.78
2022-08-02T11:42:50.833Z,17.21
2022-08-02T11:45:21.509Z,17.94
2022-08-02T11:47:52.243Z,17.39
2022-08-02T11:50:30.112Z,18.26
2022-08-02T11:52:58.469Z,17.63
2022-08-02T11:55:30.916Z,17.67
2022-08-02T11:58:05.428Z,18.10
2022-08-02T12:00:34.319Z,18.48
2022-08-02T12:03:02.018Z,17.74
2022-08-02T12:06:04.963Z,17.80
2022-08-02T12:08:19.195Z,18.10
2022-08-02T12:10:50.947Z,18.25
2022-08-02T12:13:18.019Z,18.06
2022-08-02T12:15:47.090Z,18.61
2022-08-02T12:18:41.170Z,17.68
2022-08-02T12:21:26.510Z,17.71
2022-08-02T12:24:00.116Z,18.20
2022-08-02T12:26:30.064Z,17.67
2022-08-02T12:29:01.587Z,18.94
2022-08-02T12:31:57.530Z,18.40
2022-08-02T12:34:31.586Z,17.87
2022-08-02T12:37:03.741Z,17.99
2022-08-02T12:39:35.168Z,17.90
2022-08-02T12:42:02.705Z,17.94
2022-08-02T12:44:29.878Z,17.82
2022-08-02T12:47:04.158Z,17.69
2022-08-02T12:49:32.451Z,18.73
2022-08-02T12:52:02.255Z,17.50
2022-08-02T12:54:41.446Z,16.32
2022-08-02T12:57:13.748Z,16.57
2022-08-02T12:59:44.511Z,17.21
2022-08-02T13:02:13.518Z,17.31
2022-08-02T13:04:50.407Z,16.58
2022-08-02T13:07:18.878Z,16.13
2022-08-02T13:09:47.635Z,15.16
2022-08-02T13:12:15.048Z,15.29
2022-08-02T13:14:42.905Z,15.15
2022-08-02T13:17:11.457Z,14.89
2022-08-02T13:19:38.896Z,15.08
2022-08-02T13:22:11.501Z,17.22
2022-08-02T13:24:55.868Z,16.69
2022-08-02T13:27:26.638Z,17.21
2022-08-02T13:29:56.581Z,16.25
2022-08-02T13:32:25.267Z,15.96
2022-08-02T13:34:52.402Z,14.83
2022-08-02T13:37:19.744Z,15.17
2022-08-02T13:40:05.509Z,15.82
2022-08-02T13:42:34.682Z,15.58
2022-08-02T13:45:12.045Z,15.46
2022-08-02T13:48:04.089Z,12.60
2022-08-02T13:50:30.281Z,13.18
2022-08-02T13:52:57.365Z,13.63
2022-08-02T13:55:24.404Z,13.64
2022-08-02T13:57:53.638Z,14.57
2022-08-02T14:00:35.513Z,14.90
2022-08-02T14:03:05.848Z,15.13
2022-08-02T14:05:44.721Z,16.13
2022-08-02T14:08:19.695Z,16.36
2022-08-02T14:10:49.108Z,14.87
2022-08-02T14:13:17.093Z,14.71
2022-08-02T14:15:44.957Z,14.14
2022-08-02T14:18:12.729Z,15.76
2022-08-02T14:20:39.797Z,15.98
2022-08-02T14:23:07.008Z,16.84
2022-08-02T14:25:33.991Z,17.44
2022-08-02T14:28:01.018Z,16.70
2022-08-02T14:30:28.444Z,16.38
2022-08-02T14:32:56.616Z,15.84
2022-08-02T14:35:23.742Z,15.76
2022-08-02T14:37:50.839Z,17.07
2022-08-02T14:40:28.156Z,15.72
2022-08-02T14:43:02.596Z,15.97
2022-08-02T14:45:36.624Z,14.89
2022-08-02T14:48:07.741Z,15.99
2022-08-02T14:50:35.715Z,16.33
2022-08-02T14:53:02.757Z,15.14
2022-08-02T14:55:29.854Z,15.20
2022-08-02T14:57:56.937Z,15.35
2022-08-02T15:00:23.942Z,14.91
2022-08-02T15:02:51.119Z,15.10
2022-08-02T15:05:18.118Z,14.45
2022-08-02T15:07:49.370Z,13.75
2022-08-02T15:10:16.722Z,14.43
2022-08-02T15:12:46.088Z,14.10
2022-08-02T15:15:13.292Z,14.24
2022-08-02T15:17:40.472Z,14.84
2022-08-02T15:20:25.195Z,15.05
2022-08-02T15:22:53.247Z,15.22
2022-08-02T15:25:21.481Z,15.14
2022-08-02T15:27:48.713Z,14.82
2022-08-02T15:30:15.881Z,15.52
2022-08-02T15:32:53.346Z,15.03
2022-08-02T15:35:21.457Z,14.31
2022-08-02T15:37:48.439Z,14.68
2022-08-02T15:40:15.516Z,14.73
2022-08-02T15:42:43.820Z,15.41
2022-08-02T15:45:15.653Z,15.11
2022-08-02T15:47:48.118Z,15.08
2022-08-02T15:50:18.633Z,15.24
2022-08-02T15:52:45.789Z,15.01
2022-08-02T15:55:13.619Z,15.67
2022-08-02T15:57:41.952Z,15.56
2022-08-02T16:00:18.134Z,15.93
2022-08-02T16:02:47.837Z,16.23
2022-08-02T16:05:18.073Z,16.60
2022-08-02T16:07:46.486Z,16.31
2022-08-02T16:10:15.074Z,16.19
2022-08-02T16:12:42.205Z,16.27
2022-08-02T16:15:09.673Z,16.72
2022-08-02T16:17:53.796Z,17.03
2022-08-02T16:20:23.266Z,16.85
2022-08-02T16:22:50.359Z,17.33
2022-08-02T16:25:17.683Z,17.51
2022-08-02T16:27:57.560Z,18.06
2022-08-02T16:30:32.307Z,18.71
2022-08-02T16:32:59.370Z,18.87
2022-08-02T16:35:28.125Z,19.44
2022-08-02T16:37:55.131Z,20.60
2022-08-02T16:40:22.489Z,20.57
2022-08-02T16:42:50.537Z,20.28
2022-08-02T16:45:22.594Z,20.29
2022-08-02T16:47:55.102Z,20.82
2022-08-02T16:50:27.140Z,21.66
2022-08-02T16:52:58.353Z,21.83
2022-08-02T16:55:26.319Z,21.77
2022-08-02T16:57:58.578Z,20.78
2022-08-02T17:00:26.209Z,20.67
2022-08-02T17:02:54.760Z,21.21
2022-08-02T17:05:29.829Z,21.40
2022-08-02T17:08:07.954Z,21.00
2022-08-02T17:10:43.841Z,20.96
2022-08-02T17:16:17.059Z,21.33
2022-08-02T17:18:47.104Z,22.07
2022-08-02T17:21:18.247Z,23.03
2022-08-02T17:24:02.834Z,22.92
2022-08-02T17:26:32.644Z,23.07
2022-08-02T17:29:16.503Z,23.15
2022-08-02T17:32:05.259Z,23.50
2022-08-02T17:34:34.219Z,23.90
2022-08-02T17:37:01.366Z,24.07
2022-08-02T17:39:33.543Z,24.54
2022-08-02T17:42:02.775Z,24.36
2022-08-02T17:44:37.465Z,24.96
2022-08-02T17:47:11.846Z,25.08
2022-08-02T17:49:43.939Z,25.15
2022-08-02T17:52:48.207Z,25.54
2022-08-02T17:54:58.882Z,26.29
2022-08-02T17:57:56.280Z,25.77
2022-08-02T18:00:13.991Z,26.42
2022-08-02T18:02:41.919Z,26.64
2022-08-02T18:05:13.261Z,26.69
2022-08-02T18:07:53.036Z,26.91
2022-08-02T18:10:23.783Z,27.15
2022-08-02T18:12:53.419Z,27.65
2022-08-02T18:15:23.285Z,27.55
2022-08-02T18:17:51.260Z,27.44
2022-08-02T18:20:34.772Z,28.29
2022-08-02T18:23:02.570Z,28.47
2022-08-02T18:25:37.342Z,28.96
2022-08-02T18:28:11.398Z,29.17
2022-08-02T18:30:39.119Z,29.18
2022-08-02T18:33:58.786Z,29.72
2022-08-02T18:35:55.354Z,29.91
2022-08-02T18:38:28.377Z,30.66
2022-08-02T18:40:55.813Z,30.24
2022-08-02T18:43:25.037Z,30.61
2022-08-02T18:46:05.902Z,31.46
2022-08-02T18:48:35.311Z,31.23
2022-08-02T18:51:03.243Z,30.60
2022-08-02T18:53:41.748Z,31.64
2022-08-02T18:56:20.418Z,31.80
2022-08-02T18:58:55.568Z,32.78
2022-08-02T19:01:34.033Z,31.98
2022-08-02T19:04:04.624Z,32.44
2022-08-02T19:06:32.764Z,32.32
2022-08-02T19:11:48.228Z,32.76
2022-08-02T19:14:27.641Z,32.69
2022-08-02T19:16:57.878Z,33.21
2022-08-02T19:22:26.805Z,33.50
2022-08-02T19:25:01.009Z,33.94
2022-08-02T19:27:32.508Z,34.84
2022-08-02T19:30:07.598Z,35.45
2022-08-02T19:32:42.754Z,35.53
2022-08-02T19:35:30.467Z,35.94
2022-08-02T19:38:08.772Z,36.12
2022-08-02T19:40:36.726Z,36.33
2022-08-02T19:44:25.691Z,36.43
2022-08-02T19:45:57.141Z,37.01
2022-08-02T19:48:27.241Z,36.85
2022-08-02T19:51:00.978Z,36.81
2022-08-02T19:53:48.223Z,36.69
2022-08-02T19:56:25.523Z,37.70
2022-08-02T19:58:54.758Z,38.02
2022-08-02T20:01:36.920Z,38.19
2022-08-02T20:04:07.491Z,38.31
2022-08-02T20:06:42.819Z,37.90
2022-08-02T20:09:21.405Z,39.20
2022-08-02T20:12:05.898Z,38.11
2022-08-02T20:14:33.048Z,38.28
2022-08-02T20:17:00.974Z,38.75
2022-08-02T20:22:15.984Z,38.43
2022-08-02T20:24:43.519Z,38.81
2022-08-02T20:27:17.030Z,38.52
2022-08-02T20:29:51.039Z,39.08
2022-08-02T20:32:24.353Z,38.31
2022-08-02T20:34:52.841Z,38.04
2022-08-02T20:38:00.257Z,38.64
2022-08-02T20:40:08.615Z,39.16
2022-08-02T20:42:35.690Z,38.81
2022-08-02T20:45:04.861Z,38.62
2022-08-02T20:50:38.150Z,39.22
2022-08-02T20:53:06.865Z,38.65
2022-08-02T20:55:35.784Z,39.04
2022-08-02T20:58:04.548Z,38.87
2022-08-02T21:00:35.018Z,38.76
2022-08-02T21:03:04.537Z,38.93
2022-08-02T21:05:43.540Z,39.33
2022-08-02T21:08:21.358Z,38.72
2022-08-02T21:10:51.769Z,39.16
2022-08-02T21:13:25.898Z,39.18
2022-08-02T21:15:55.130Z,39.79
2022-08-02T21:18:30.126Z,39.74
2022-08-02T21:21:06.591Z,39.50
2022-08-02T21:23:36.908Z,39.75
2022-08-02T21:26:06.706Z,39.60
2022-08-02T21:31:22.991Z,39.73
2022-08-02T21:36:38.418Z,39.98
2022-08-02T21:39:14.123Z,39.99
2022-08-02T21:44:31.632Z,40.22
2022-08-02T21:46:58.874Z,39.99
2022-08-02T21:50:09.812Z,40.13
2022-08-02T21:52:25.990Z,40.25
2022-08-02T21:54:56.819Z,41.08
2022-08-02T21:57:26.990Z,41.51
2022-08-02T22:00:11.330Z,41.95
2022-08-02T22:02:41.546Z,42.11
2022-08-02T22:05:15.891Z,42.24
2022-08-02T22:07:45.820Z,41.90
2022-08-02T22:10:16.029Z,42.20
2022-08-02T22:12:53.580Z,42.09
2022-08-02T22:15:25.874Z,41.68
2022-08-02T22:18:06.694Z,41.58
2022-08-02T22:21:01.871Z,41.74
2022-08-02T22:23:50.267Z,41.84
2022-08-02T22:26:18.978Z,41.77
2022-08-02T22:28:51.032Z,42.46
2022-08-02T22:31:40.342Z,42.11
2022-08-02T22:34:26.734Z,42.79
2022-08-02T22:36:55.463Z,42.33
2022-08-02T22:39:22.568Z,42.48
2022-08-02T22:42:05.365Z,42.54
2022-08-02T22:44:35.659Z,42.69
2022-08-02T22:47:07.237Z,42.73
2022-08-02T22:49:51.863Z,42.80
2022-08-02T22:52:23.268Z,43.17
2022-08-02T22:54:51.127Z,43.53
2022-08-02T22:57:29.919Z,43.88
2022-08-02T22:58:47.003Z,32.21
2022-08-02T22:58:49.679Z,21.60
2022-08-02T22:58:55.200Z,38.44
2022-08-02T22:58:56.233Z,39.11
2022-08-02T22:58:57.369Z,33.56
2022-08-02T22:59:02.908Z,39.31
2022-08-02T22:59:03.343Z,40.06
2022-08-02T22:59:12.330Z,39.56
2022-08-02T22:59:57.290Z,43.84
2022-08-02T23:02:25.085Z,43.73
2022-08-02T23:04:52.721Z,44.34
2022-08-02T23:07:19.795Z,44.02
2022-08-02T23:09:46.899Z,44.49
2022-08-02T23:12:19.064Z,44.03
2022-08-02T23:14:51.219Z,44.81
2022-08-02T23:17:38.412Z,44.33
2022-08-02T23:20:07.303Z,44.97
2022-08-02T23:22:34.392Z,44.58
2022-08-02T23:25:03.580Z,44.58
2022-08-02T23:27:32.170Z,45.47
2022-08-02T23:30:00.928Z,45.52
2022-08-02T23:32:28.491Z,44.83
2022-08-02T23:34:57.410Z,45.20
2022-08-02T23:37:24.943Z,45.10
2022-08-02T23:39:52.409Z,44.67
2022-08-02T23:42:37.984Z,45.07
2022-08-02T23:45:05.396Z,45.34
2022-08-02T23:47:32.381Z,45.29
2022-08-02T23:49:59.350Z,44.99
2022-08-02T23:52:26.387Z,45.68
2022-08-02T23:54:53.375Z,46.17
2022-08-02T23:57:21.657Z,45.63
2022-08-02T23:59:52.180Z,46.02
